sensor_id;sensor_type;location;lat;lon;timestamp;pressure;altitude;pressure_sealevel;temperature;humidity
35806;BME280;21925;44.608;11.580;2023-05-18T00:02:02;101704.38;;;17.90;100.00
35806;BME280;21925;44.608;11.580;2023-05-18T00:04:34;101696.44;;;17.89;100.00
35806;BME280;21925;44.608;11.580;2023-05-18T00:07:01;101695.38;;;17.97;100.00
35806;BME280;21925;44.608;11.580;2023-05-18T00:09:32;101687.28;;;17.85;100.00
35806;BME280;21925;44.608;11.580;2023-05-18T00:11:58;101692.22;;;17.98;100.00
35806;BME280;21925;44.608;11.580;2023-05-18T00:14:25;101700.06;;;18.19;100.00
35806;BME280;21925;44.608;11.580;2023-05-18T00:16:51;101694.75;;;18.33;100.00
35806;BME280;21925;44.608;11.580;2023-05-18T00:19:18;101685.66;;;18.10;100.00
35806;BME280;21925;44.608;11.580;2023-05-18T00:21:45;101695.38;;;17.97;100.00
35806;BME280;21925;44.608;11.580;2023-05-18T00:24:13;101710.00;;;18.20;100.00
35806;BME280;21925;44.608;11.580;2023-05-18T00:26:40;101700.81;;;18.16;100.00
35806;BME280;21925;44.608;11.580;2023-05-18T00:29:06;101702.13;;;18.22;100.00
35806;BME280;21925;44.608;11.580;2023-05-18T00:31:32;101690.69;;;18.27;100.00
35806;BME280;21925;44.608;11.580;2023-05-18T00:34:06;101691.56;;;18.31;100.00
35806;BME280;21925;44.608;11.580;2023-05-18T00:36:32;101700.41;;;18.40;100.00
35806;BME280;21925;44.608;11.580;2023-05-18T00:38:58;101701.66;;;18.45;100.00
35806;BME280;21925;44.608;11.580;2023-05-18T00:41:25;101700.09;;;18.48;100.00
35806;BME280;21925;44.608;11.580;2023-05-18T00:43:54;101692.94;;;18.47;100.00
35806;BME280;21925;44.608;11.580;2023-05-18T00:46:20;101712.94;;;18.59;100.00
35806;BME280;21925;44.608;11.580;2023-05-18T00:48:47;101705.31;;;18.49;100.00
35806;BME280;21925;44.608;11.580;2023-05-18T00:51:14;101701.63;;;18.42;100.00
35806;BME280;21925;44.608;11.580;2023-05-18T00:53:41;101708.50;;;18.26;100.00
35806;BME280;21925;44.608;11.580;2023-05-18T00:56:09;101714.75;;;18.45;100.00
35806;BME280;21925;44.608;11.580;2023-05-18T00:58:35;101700.81;;;18.41;100.00
35806;BME280;21925;44.608;11.580;2023-05-18T01:01:02;101700.41;;;18.40;100.00
35806;BME280;21925;44.608;11.580;2023-05-18T01:03:32;101713.41;;;18.36;100.00
35806;BME280;21925;44.608;11.580;2023-05-18T01:05:58;101717.19;;;18.21;100.00
35806;BME280;21925;44.608;11.580;2023-05-18T01:08:25;101722.59;;;18.14;100.00
35806;BME280;21925;44.608;11.580;2023-05-18T01:11:05;101731.88;;;18.21;100.00
35806;BME280;21925;44.608;11.580;2023-05-18T01:13:41;101731.53;;;18.26;100.00
35806;BME280;21925;44.608;11.580;2023-05-18T01:16:17;101741.94;;;18.07;100.00
35806;BME280;21925;44.608;11.580;2023-05-18T01:18:51;101723.72;;;18.09;100.00
35806;BME280;21925;44.608;11.580;2023-05-18T01:26:42;101716.00;;;18.22;100.00
35806;BME280;21925;44.608;11.580;2023-05-18T01:29:12;101730.41;;;18.31;100.00
35806;BME280;21925;44.608;11.580;2023-05-18T01:31:38;101733.19;;;18.31;100.00
35806;BME280;21925;44.608;11.580;2023-05-18T01:34:05;101717.41;;;18.38;100.00
35806;BME280;21925;44.608;11.580;2023-05-18T01:36:31;101724.56;;;18.39;100.00
35806;BME280;21925;44.608;11.580;2023-05-18T01:38:59;101720.56;;;18.37;100.00
35806;BME280;21925;44.608;11.580;2023-05-18T01:41:31;101729.28;;;18.35;100.00
35806;BME280;21925;44.608;11.580;2023-05-18T01:44:19;101734.69;;;18.25;100.00
35806;BME280;21925;44.608;11.580;2023-05-18T01:47:11;101731.06;;;18.21;100.00
35806;BME280;21925;44.608;11.580;2023-05-18T01:49:47;101729.72;;;18.11;100.00
35806;BME280;21925;44.608;11.580;2023-05-18T01:54:59;101735.31;;;18.15;100.00
35806;BME280;21925;44.608;11.580;2023-05-18T01:57:26;101722.94;;;18.09;100.00
35806;BME280;21925;44.608;11.580;2023-05-18T01:59:54;101715.00;;;18.11;100.00
35806;BME280;21925;44.608;11.580;2023-05-18T02:02:21;101712.19;;;18.07;100.00
35806;BME280;21925;44.608;11.580;2023-05-18T02:04:47;101717.03;;;18.14;100.00
35806;BME280;21925;44.608;11.580;2023-05-18T02:07:13;101711.06;;;18.12;100.00
35806;BME280;21925;44.608;11.580;2023-05-18T02:09:40;101725.00;;;18.15;100.00
35806;BME280;21925;44.608;11.580;2023-05-18T02:12:07;101703.97;;;17.88;100.00
35806;BME280;21925;44.608;11.580;2023-05-18T02:14:32;101709.94;;;18.16;100.00
35806;BME280;21925;44.608;11.580;2023-05-18T02:16:58;101698.34;;;18.11;100.00
35806;BME280;21925;44.608;11.580;2023-05-18T02:19:25;101694.22;;;17.98;100.00
35806;BME280;21925;44.608;11.580;2023-05-18T02:21:52;101704.09;;;17.95;100.00
35806;BME280;21925;44.608;11.580;2023-05-18T02:24:18;101691.69;;;17.89;100.00
35806;BME280;21925;44.608;11.580;2023-05-18T02:26:43;101700.88;;;17.93;100.00
35806;BME280;21925;44.608;11.580;2023-05-18T02:29:11;101706.56;;;17.78;100.00
35806;BME280;21925;44.608;11.580;2023-05-18T02:31:39;101707.63;;;17.70;100.00
35806;BME280;21925;44.608;11.580;2023-05-18T02:34:05;101684.81;;;17.58;100.00
35806;BME280;21925;44.608;11.580;2023-05-18T02:36:30;101685.94;;;17.53;100.00
35806;BME280;21925;44.608;11.580;2023-05-18T02:39:02;101690.13;;;17.66;100.00
35806;BME280;21925;44.608;11.580;2023-05-18T02:41:32;101691.19;;;17.58;100.00
35806;BME280;21925;44.608;11.580;2023-05-18T02:43:58;101699.06;;;17.56;100.00
35806;BME280;21925;44.608;11.580;2023-05-18T02:46:24;101707.44;;;17.59;100.00
35806;BME280;21925;44.608;11.580;2023-05-18T02:48:50;101709.72;;;17.54;100.00
35806;BME280;21925;44.608;11.580;2023-05-18T02:51:15;101682.66;;;17.44;100.00
35806;BME280;21925;44.608;11.580;2023-05-18T02:53:41;101728.72;;;17.52;100.00
35806;BME280;21925;44.608;11.580;2023-05-18T02:56:12;101716.53;;;17.57;100.00
35806;BME280;21925;44.608;11.580;2023-05-18T02:58:47;101729.91;;;17.51;100.00
35806;BME280;21925;44.608;11.580;2023-05-18T03:01:26;101710.78;;;17.46;100.00
35806;BME280;21925;44.608;11.580;2023-05-18T03:03:52;101726.63;;;17.46;100.00
35806;BME280;21925;44.608;11.580;2023-05-18T03:06:19;101712.66;;;17.39;100.00
35806;BME280;21925;44.608;11.580;2023-05-18T03:08:54;101706.16;;;17.31;100.00
35806;BME280;21925;44.608;11.580;2023-05-18T03:11:23;101707.03;;;17.35;100.00
35806;BME280;21925;44.608;11.580;2023-05-18T03:13:49;101707.78;;;17.32;100.00
35806;BME280;21925;44.608;11.580;2023-05-18T03:16:15;101708.16;;;17.12;100.00
35806;BME280;21925;44.608;11.580;2023-05-18T03:18:40;101715.22;;;17.09;100.00
35806;BME280;21925;44.608;11.580;2023-05-18T03:21:06;101722.91;;;16.97;100.00
35806;BME280;21925;44.608;11.580;2023-05-18T03:23:33;101705.06;;;16.76;100.00
35806;BME280;21925;44.608;11.580;2023-05-18T03:26:00;101715.03;;;16.80;100.00
35806;BME280;21925;44.608;11.580;2023-05-18T03:28:30;101688.75;;;16.52;100.00
35806;BME280;21925;44.608;11.580;2023-05-18T03:30:56;101719.22;;;16.71;100.00
35806;BME280;21925;44.608;11.580;2023-05-18T03:33:22;101703.75;;;16.70;100.00
35806;BME280;21925;44.608;11.580;2023-05-18T03:35:48;101719.41;;;16.81;100.00
35806;BME280;21925;44.608;11.580;2023-05-18T03:38:13;101704.91;;;16.69;100.00
35806;BME280;21925;44.608;11.580;2023-05-18T03:40:44;101717.22;;;16.71;100.00
35806;BME280;21925;44.608;11.580;2023-05-18T03:43:09;101712.34;;;16.65;100.00
35806;BME280;21925;44.608;11.580;2023-05-18T03:45:36;101718.97;;;16.60;100.00
35806;BME280;21925;44.608;11.580;2023-05-18T03:48:02;101711.47;;;16.42;100.00
35806;BME280;21925;44.608;11.580;2023-05-18T03:50:28;101725.03;;;16.47;100.00
35806;BME280;21925;44.608;11.580;2023-05-18T03:52:54;101707.38;;;16.36;100.00
35806;BME280;21925;44.608;11.580;2023-05-18T03:55:20;101732.66;;;16.34;100.00
35806;BME280;21925;44.608;11.580;2023-05-18T03:57:47;101736.66;;;16.37;100.00
35806;BME280;21925;44.608;11.580;2023-05-18T04:00:13;101719.16;;;16.33;100.00
35806;BME280;21925;44.608;11.580;2023-05-18T04:02:42;101732.13;;;16.29;100.00
35806;BME280;21925;44.608;11.580;2023-05-18T04:05:09;101741.66;;;16.16;100.00
35806;BME280;21925;44.608;11.580;2023-05-18T04:07:36;101740.59;;;16.36;100.00
35806;BME280;21925;44.608;11.580;2023-05-18T04:10:09;101752.72;;;16.47;100.00
35806;BME280;21925;44.608;11.580;2023-05-18T04:12:36;101739.28;;;16.49;100.00
35806;BME280;21925;44.608;11.580;2023-05-18T04:15:02;101753.56;;;16.51;100.00
35806;BME280;21925;44.608;11.580;2023-05-18T04:17:28;101749.50;;;16.45;100.00
35806;BME280;21925;44.608;11.580;2023-05-18T04:19:54;101749.38;;;16.07;100.00
35806;BME280;21925;44.608;11.580;2023-05-18T04:22:21;101749.09;;;16.27;100.00
35806;BME280;21925;44.608;11.580;2023-05-18T04:24:47;101749.94;;;16.47;100.00
35806;BME280;21925;44.608;11.580;2023-05-18T04:27:13;101756.09;;;16.56;100.00
35806;BME280;21925;44.608;11.580;2023-05-18T04:29:38;101760.53;;;16.79;100.00
35806;BME280;21925;44.608;11.580;2023-05-18T04:32:05;101756.66;;;16.83;100.00
35806;BME280;21925;44.608;11.580;2023-05-18T04:34:33;101770.94;;;17.04;100.00
35806;BME280;21925;44.608;11.580;2023-05-18T04:37:05;101772.78;;;17.16;100.00
35806;BME280;21925;44.608;11.580;2023-05-18T04:39:32;101763.50;;;17.08;100.00
35806;BME280;21925;44.608;11.580;2023-05-18T04:42:00;101760.91;;;16.77;100.00
35806;BME280;21925;44.608;11.580;2023-05-18T04:44:30;101780.34;;;16.81;100.00
35806;BME280;21925;44.608;11.580;2023-05-18T04:46:59;101768.44;;;16.43;100.00
35806;BME280;21925;44.608;11.580;2023-05-18T04:49:25;101760.44;;;16.57;100.00
35806;BME280;21925;44.608;11.580;2023-05-18T04:51:54;101758.53;;;16.26;100.00
35806;BME280;21925;44.608;11.580;2023-05-18T04:54:24;101779.41;;;16.39;100.00
35806;BME280;21925;44.608;11.580;2023-05-18T04:56:52;101781.00;;;16.56;100.00
35806;BME280;21925;44.608;11.580;2023-05-18T04:59:18;101795.06;;;16.85;100.00
35806;BME280;21925;44.608;11.580;2023-05-18T05:01:44;101782.31;;;16.80;100.00
35806;BME280;21925;44.608;11.580;2023-05-18T05:04:11;101773.59;;;16.78;100.00
35806;BME280;21925;44.608;11.580;2023-05-18T05:06:36;101781.81;;;16.75;100.00
35806;BME280;21925;44.608;11.580;2023-05-18T05:09:02;101788.00;;;16.69;100.00
35806;BME280;21925;44.608;11.580;2023-05-18T05:11:28;101779.47;;;16.77;100.00
35806;BME280;21925;44.608;11.580;2023-05-18T05:13:55;101771.94;;;16.59;100.00
35806;BME280;21925;44.608;11.580;2023-05-18T05:16:21;101783.78;;;16.75;100.00
35806;BME280;21925;44.608;11.580;2023-05-18T05:18:47;101790.63;;;16.80;100.00
35806;BME280;21925;44.608;11.580;2023-05-18T05:21:13;101808.69;;;16.75;100.00
35806;BME280;21925;44.608;11.580;2023-05-18T05:23:38;101801.06;;;16.87;100.00
35806;BME280;21925;44.608;11.580;2023-05-18T05:26:06;101790.78;;;17.06;100.00
35806;BME280;21925;44.608;11.580;2023-05-18T05:28:32;101790.78;;;16.87;100.00
35806;BME280;21925;44.608;11.580;2023-05-18T05:30:57;101814.94;;;17.06;100.00
35806;BME280;21925;44.608;11.580;2023-05-18T05:33:23;101793.53;;;17.06;100.00
35806;BME280;21925;44.608;11.580;2023-05-18T05:35:49;101806.88;;;17.01;100.00
35806;BME280;21925;44.608;11.580;2023-05-18T05:38:15;101813.25;;;17.01;100.00
35806;BME280;21925;44.608;11.580;2023-05-18T05:40:41;101814.25;;;17.12;100.00
35806;BME280;21925;44.608;11.580;2023-05-18T05:43:07;101815.38;;;17.08;100.00
35806;BME280;21925;44.608;11.580;2023-05-18T05:45:33;101805.78;;;17.24;100.00
35806;BME280;21925;44.608;11.580;2023-05-18T05:48:02;101789.88;;;17.21;100.00
35806;BME280;21925;44.608;11.580;2023-05-18T05:50:29;101817.63;;;17.40;100.00
35806;BME280;21925;44.608;11.580;2023-05-18T05:52:58;101796.69;;;17.24;100.00
35806;BME280;21925;44.608;11.580;2023-05-18T05:55:25;101808.28;;;17.48;100.00
35806;BME280;21925;44.608;11.580;2023-05-18T05:57:51;101802.78;;;17.52;100.00
35806;BME280;21925;44.608;11.580;2023-05-18T06:00:17;101817.16;;;17.57;100.00
35806;BME280;21925;44.608;11.580;2023-05-18T06:02:47;101819.50;;;17.55;100.00
35806;BME280;21925;44.608;11.580;2023-05-18T06:05:16;101800.94;;;17.37;100.00
35806;BME280;21925;44.608;11.580;2023-05-18T06:07:41;101819.50;;;17.55;100.00
35806;BME280;21925;44.608;11.580;2023-05-18T06:10:08;101805.38;;;17.41;100.00
35806;BME280;21925;44.608;11.580;2023-05-18T06:12:34;101833.50;;;17.62;100.00
35806;BME280;21925;44.608;11.580;2023-05-18T06:15:01;101845.53;;;17.69;100.00
35806;BME280;21925;44.608;11.580;2023-05-18T06:17:27;101832.75;;;17.65;100.00
35806;BME280;21925;44.608;11.580;2023-05-18T06:19:53;101846.44;;;17.77;100.00
35806;BME280;21925;44.608;11.580;2023-05-18T06:22:19;101845.97;;;17.71;100.00
35806;BME280;21925;44.608;11.580;2023-05-18T06:25:05;101841.66;;;17.74;100.00
35806;BME280;21925;44.608;11.580;2023-05-18T06:27:46;101852.88;;;17.81;100.00
35806;BME280;21925;44.608;11.580;2023-05-18T06:30:34;101836.81;;;17.71;100.00
35806;BME280;21925;44.608;11.580;2023-05-18T06:33:13;101843.13;;;17.68;100.00
35806;BME280;21925;44.608;11.580;2023-05-18T06:35:39;101830.56;;;17.74;100.00
35806;BME280;21925;44.608;11.580;2023-05-18T06:38:06;101840.91;;;17.77;100.00
35806;BME280;21925;44.608;11.580;2023-05-18T06:40:40;101844.06;;;17.75;100.00
35806;BME280;21925;44.608;11.580;2023-05-18T06:43:06;101856.41;;;18.00;100.00
35806;BME280;21925;44.608;11.580;2023-05-18T06:46:01;101843.75;;;18.03;100.00
35806;BME280;21925;44.608;11.580;2023-05-18T06:48:38;101850.28;;;18.14;100.00
35806;BME280;21925;44.608;11.580;2023-05-18T06:51:04;101851.50;;;18.16;100.00
35806;BME280;21925;44.608;11.580;2023-05-18T06:53:29;101833.78;;;18.21;100.00
35806;BME280;21925;44.608;11.580;2023-05-18T06:55:56;101840.72;;;18.59;100.00
35806;BME280;21925;44.608;11.580;2023-05-18T06:58:22;101838.44;;;18.65;100.00
35806;BME280;21925;44.608;11.580;2023-05-18T07:00:48;101837.16;;;18.85;100.00
35806;BME280;21925;44.608;11.580;2023-05-18T07:03:15;101829.75;;;18.70;100.00
35806;BME280;21925;44.608;11.580;2023-05-18T07:05:41;101830.75;;;19.10;100.00
35806;BME280;21925;44.608;11.580;2023-05-18T07:08:06;101827.44;;;19.30;100.00
35806;BME280;21925;44.608;11.580;2023-05-18T07:10:33;101793.28;;;19.30;100.00
35806;BME280;21925;44.608;11.580;2023-05-18T07:13:00;101834.13;;;18.97;100.00
35806;BME280;21925;44.608;11.580;2023-05-18T07:15:25;101815.22;;;19.09;100.00
35806;BME280;21925;44.608;11.580;2023-05-18T07:17:51;101820.59;;;18.95;100.00
35806;BME280;21925;44.608;11.580;2023-05-18T07:20:17;101824.56;;;19.23;100.00
35806;BME280;21925;44.608;11.580;2023-05-18T07:22:42;101835.34;;;19.28;100.00
35806;BME280;21925;44.608;11.580;2023-05-18T07:25:08;101816.34;;;19.34;100.00
35806;BME280;21925;44.608;11.580;2023-05-18T07:27:34;101814.06;;;19.43;100.00
35806;BME280;21925;44.608;11.580;2023-05-18T07:29:59;101818.06;;;19.45;100.00
35806;BME280;21925;44.608;11.580;2023-05-18T07:32:25;101823.06;;;19.66;100.00
35806;BME280;21925;44.608;11.580;2023-05-18T07:34:51;101839.16;;;19.86;100.00
35806;BME280;21925;44.608;11.580;2023-05-18T07:37:16;101827.31;;;19.93;100.00
35806;BME280;21925;44.608;11.580;2023-05-18T07:39:42;101830.19;;;19.63;100.00
35806;BME280;21925;44.608;11.580;2023-05-18T07:42:08;101831.34;;;19.99;100.00
35806;BME280;21925;44.608;11.580;2023-05-18T07:44:33;101823.56;;;20.18;100.00
35806;BME280;21925;44.608;11.580;2023-05-18T07:46:59;101814.75;;;20.12;100.00
35806;BME280;21925;44.608;11.580;2023-05-18T07:49:25;101814.63;;;20.49;100.00
35806;BME280;21925;44.608;11.580;2023-05-18T07:51:51;101819.09;;;20.64;96.72
35806;BME280;21925;44.608;11.580;2023-05-18T07:54:17;101827.81;;;20.55;92.90
35806;BME280;21925;44.608;11.580;2023-05-18T07:56:43;101814.38;;;20.68;91.53
35806;BME280;21925;44.608;11.580;2023-05-18T07:59:10;101809.75;;;20.89;91.79
35806;BME280;21925;44.608;11.580;2023-05-18T08:01:36;101797.00;;;20.88;92.82
35806;BME280;21925;44.608;11.580;2023-05-18T08:04:03;101825.72;;;20.95;88.15
35806;BME280;21925;44.608;11.580;2023-05-18T08:06:29;101815.19;;;20.72;90.02
35806;BME280;21925;44.608;11.580;2023-05-18T08:08:54;101833.72;;;21.04;87.84
35806;BME280;21925;44.608;11.580;2023-05-18T08:11:21;101820.34;;;21.48;86.09
35806;BME280;21925;44.608;11.580;2023-05-18T08:13:48;101823.50;;;21.43;87.31
35806;BME280;21925;44.608;11.580;2023-05-18T08:16:13;101829.56;;;21.59;79.63
35806;BME280;21925;44.608;11.580;2023-05-18T08:18:39;101832.75;;;21.61;82.82
35806;BME280;21925;44.608;11.580;2023-05-18T08:21:05;101835.53;;;21.61;90.91
35806;BME280;21925;44.608;11.580;2023-05-18T08:23:38;101825.63;;;22.22;88.67
35806;BME280;21925;44.608;11.580;2023-05-18T08:26:04;101836.44;;;22.31;79.46
35806;BME280;21925;44.608;11.580;2023-05-18T08:28:30;101830.44;;;22.60;80.45
35806;BME280;21925;44.608;11.580;2023-05-18T08:30:56;101845.13;;;22.92;79.34
35806;BME280;21925;44.608;11.580;2023-05-18T08:33:22;101851.13;;;23.04;74.44
35806;BME280;21925;44.608;11.580;2023-05-18T08:35:48;101831.53;;;22.97;71.81
35806;BME280;21925;44.608;11.580;2023-05-18T08:38:14;101859.56;;;22.14;73.66
35806;BME280;21925;44.608;11.580;2023-05-18T08:40:49;101861.16;;;22.25;72.47
35806;BME280;21925;44.608;11.580;2023-05-18T08:43:20;101851.53;;;21.77;73.70
35806;BME280;21925;44.608;11.580;2023-05-18T08:45:54;101856.69;;;23.08;71.99
35806;BME280;21925;44.608;11.580;2023-05-18T08:48:21;101836.41;;;22.48;68.98
35806;BME280;21925;44.608;11.580;2023-05-18T08:50:47;101855.41;;;23.26;72.56
35806;BME280;21925;44.608;11.580;2023-05-18T08:53:19;101847.47;;;23.11;68.88
35806;BME280;21925;44.608;11.580;2023-05-18T08:55:46;101846.25;;;23.97;73.03
35806;BME280;21925;44.608;11.580;2023-05-18T08:58:19;101849.59;;;22.54;71.71
35806;BME280;21925;44.608;11.580;2023-05-18T09:00:45;101851.22;;;22.45;70.85
35806;BME280;21925;44.608;11.580;2023-05-18T09:03:11;101838.41;;;22.65;69.33
35806;BME280;21925;44.608;11.580;2023-05-18T09:05:39;101852.38;;;22.65;70.88
35806;BME280;21925;44.608;11.580;2023-05-18T09:08:06;101838.72;;;22.88;71.53
35806;BME280;21925;44.608;11.580;2023-05-18T09:10:34;101851.28;;;24.16;71.97
35806;BME280;21925;44.608;11.580;2023-05-18T09:13:00;101844.69;;;23.93;67.80
35806;BME280;21925;44.608;11.580;2023-05-18T09:15:31;101853.38;;;24.09;69.86
35806;BME280;21925;44.608;11.580;2023-05-18T09:17:57;101864.25;;;23.18;65.73
35806;BME280;21925;44.608;11.580;2023-05-18T09:20:24;101847.47;;;23.18;65.11
35806;BME280;21925;44.608;11.580;2023-05-18T09:22:51;101856.09;;;23.51;64.53
35806;BME280;21925;44.608;11.580;2023-05-18T09:25:17;101860.88;;;24.66;69.42
35806;BME280;21925;44.608;11.580;2023-05-18T09:27:43;101830.66;;;23.96;64.82
35806;BME280;21925;44.608;11.580;2023-05-18T09:30:12;101845.97;;;23.81;64.50
35806;BME280;21925;44.608;11.580;2023-05-18T09:32:38;101855.69;;;24.17;65.68
35806;BME280;21925;44.608;11.580;2023-05-18T09:35:05;101848.78;;;24.76;65.54
35806;BME280;21925;44.608;11.580;2023-05-18T09:37:32;101852.34;;;25.16;61.75
35806;BME280;21925;44.608;11.580;2023-05-18T09:40:04;101856.19;;;24.05;61.14
35806;BME280;21925;44.608;11.580;2023-05-18T09:42:35;101868.34;;;24.39;63.55
35806;BME280;21925;44.608;11.580;2023-05-18T09:45:17;101856.44;;;24.24;60.86
35806;BME280;21925;44.608;11.580;2023-05-18T09:47:44;101854.22;;;24.90;61.46
35806;BME280;21925;44.608;11.580;2023-05-18T09:50:10;101848.47;;;25.67;62.79
35806;BME280;21925;44.608;11.580;2023-05-18T09:52:43;101861.38;;;26.17;63.49
35806;BME280;21925;44.608;11.580;2023-05-18T09:55:10;101846.88;;;26.45;60.54
35806;BME280;21925;44.608;11.580;2023-05-18T09:57:42;101833.59;;;25.96;54.85
35806;BME280;21925;44.608;11.580;2023-05-18T10:00:09;101851.53;;;25.19;57.34
35806;BME280;21925;44.608;11.580;2023-05-18T10:02:43;101854.34;;;24.79;57.01
35806;BME280;21925;44.608;11.580;2023-05-18T10:05:24;101846.22;;;24.51;57.37
35806;BME280;21925;44.608;11.580;2023-05-18T10:07:58;101833.97;;;24.72;60.01
35806;BME280;21925;44.608;11.580;2023-05-18T10:10:26;101832.88;;;25.32;57.80
35806;BME280;21925;44.608;11.580;2023-05-18T10:12:53;101851.81;;;26.11;63.14
35806;BME280;21925;44.608;11.580;2023-05-18T10:15:23;101855.97;;;26.94;59.66
35806;BME280;21925;44.608;11.580;2023-05-18T10:17:50;101847.16;;;26.50;55.84
35806;BME280;21925;44.608;11.580;2023-05-18T10:20:19;101839.72;;;26.14;56.28
35806;BME280;21925;44.608;11.580;2023-05-18T10:22:46;101861.81;;;24.52;56.45
35806;BME280;21925;44.608;11.580;2023-05-18T10:25:17;101812.69;;;24.78;57.38
35806;BME280;21925;44.608;11.580;2023-05-18T10:27:43;101854.47;;;26.90;61.27
35806;BME280;21925;44.608;11.580;2023-05-18T10:30:10;101857.22;;;27.32;59.58
35806;BME280;21925;44.608;11.580;2023-05-18T10:32:37;101808.44;;;27.19;57.88
35806;BME280;21925;44.608;11.580;2023-05-18T10:35:04;101865.53;;;27.20;56.31
35806;BME280;21925;44.608;11.580;2023-05-18T10:37:38;101859.75;;;27.07;54.46
35806;BME280;21925;44.608;11.580;2023-05-18T10:40:07;101856.00;;;27.33;58.53
35806;BME280;21925;44.608;11.580;2023-05-18T10:42:34;101852.75;;;27.54;57.69
35806;BME280;21925;44.608;11.580;2023-05-18T10:45:01;101857.41;;;27.80;56.99
35806;BME280;21925;44.608;11.580;2023-05-18T10:47:27;101856.25;;;26.80;50.71
35806;BME280;21925;44.608;11.580;2023-05-18T10:49:53;101861.16;;;26.31;55.18
35806;BME280;21925;44.608;11.580;2023-05-18T10:52:20;101800.59;;;26.68;55.99
35806;BME280;21925;44.608;11.580;2023-05-18T10:54:46;101845.41;;;27.41;56.35
35806;BME280;21925;44.608;11.580;2023-05-18T10:57:15;101798.81;;;27.71;57.82
35806;BME280;21925;44.608;11.580;2023-05-18T10:59:43;101841.19;;;27.68;57.86
35806;BME280;21925;44.608;11.580;2023-05-18T11:02:14;101855.88;;;28.11;59.58
35806;BME280;21925;44.608;11.580;2023-05-18T11:04:41;101840.50;;;28.31;56.02
35806;BME280;21925;44.608;11.580;2023-05-18T11:07:10;101850.72;;;27.90;53.21
35806;BME280;21925;44.608;11.580;2023-05-18T11:09:40;101848.00;;;27.86;52.06
35806;BME280;21925;44.608;11.580;2023-05-18T11:12:11;101842.69;;;28.24;55.81
35806;BME280;21925;44.608;11.580;2023-05-18T11:14:48;101850.91;;;28.78;54.87
35806;BME280;21925;44.608;11.580;2023-05-18T11:17:22;101840.50;;;28.75;54.52
35806;BME280;21925;44.608;11.580;2023-05-18T11:22:47;101833.06;;;28.53;51.19
35806;BME280;21925;44.608;11.580;2023-05-18T11:27:57;101829.94;;;28.79;51.54
35806;BME280;21925;44.608;11.580;2023-05-18T11:30:30;101840.94;;;29.30;52.66
35806;BME280;21925;44.608;11.580;2023-05-18T11:33:20;101826.75;;;29.06;51.09
35806;BME280;21925;44.608;11.580;2023-05-18T11:36:08;101827.00;;;29.52;53.56
35806;BME280;21925;44.608;11.580;2023-05-18T11:38:55;101839.00;;;29.56;51.69
35806;BME280;21925;44.608;11.580;2023-05-18T11:41:34;101823.56;;;28.91;52.89
35806;BME280;21925;44.608;11.580;2023-05-18T11:47:04;101825.81;;;28.52;54.71
35806;BME280;21925;44.608;11.580;2023-05-18T11:49:41;101817.41;;;28.64;54.22
35806;BME280;21925;44.608;11.580;2023-05-18T11:57:41;101823.69;;;28.56;55.61
35806;BME280;21925;44.608;11.580;2023-05-18T12:00:09;101814.59;;;28.64;56.20
35806;BME280;21925;44.608;11.580;2023-05-18T12:02:42;101818.72;;;29.04;52.89
35806;BME280;21925;44.608;11.580;2023-05-18T12:05:09;101820.91;;;28.84;54.45
35806;BME280;21925;44.608;11.580;2023-05-18T12:07:35;101816.59;;;28.80;53.51
35806;BME280;21925;44.608;11.580;2023-05-18T12:10:05;101798.88;;;28.63;54.95
35806;BME280;21925;44.608;11.580;2023-05-18T12:12:32;101795.00;;;29.02;55.40
35806;BME280;21925;44.608;11.580;2023-05-18T12:15:00;101799.63;;;29.08;55.47
35806;BME280;21925;44.608;11.580;2023-05-18T12:17:44;101755.31;;;28.36;51.25
35806;BME280;21925;44.608;11.580;2023-05-18T12:22:44;101820.59;;;29.23;53.26
35806;BME280;21925;44.608;11.580;2023-05-18T12:25:12;101815.34;;;29.09;51.77
35806;BME280;21925;44.608;11.580;2023-05-18T12:27:39;101799.56;;;29.12;53.74
35806;BME280;21925;44.608;11.580;2023-05-18T12:30:09;101792.31;;;29.76;55.49
35806;BME280;21925;44.608;11.580;2023-05-18T12:32:59;101811.09;;;29.95;53.16
35806;BME280;21925;44.608;11.580;2023-05-18T12:35:27;101790.63;;;30.03;51.62
35806;BME280;21925;44.608;11.580;2023-05-18T12:37:54;101789.38;;;30.04;50.45
35806;BME280;21925;44.608;11.580;2023-05-18T12:40:21;101797.97;;;29.11;50.64
35806;BME280;21925;44.608;11.580;2023-05-18T12:45:18;101805.06;;;29.03;49.41
35806;BME280;21925;44.608;11.580;2023-05-18T12:47:44;101783.59;;;28.48;49.55
35806;BME280;21925;44.608;11.580;2023-05-18T12:50:10;101783.09;;;29.35;54.22
35806;BME280;21925;44.608;11.580;2023-05-18T12:52:36;101789.03;;;29.78;51.21
35806;BME280;21925;44.608;11.580;2023-05-18T12:55:01;101782.94;;;29.26;50.78
35806;BME280;21925;44.608;11.580;2023-05-18T12:57:29;101789.78;;;29.00;50.66
35806;BME280;21925;44.608;11.580;2023-05-18T12:59:59;101787.66;;;29.45;53.97
35806;BME280;21925;44.608;11.580;2023-05-18T13:02:35;101787.53;;;29.86;52.81
35806;BME280;21925;44.608;11.580;2023-05-18T13:05:02;101785.50;;;30.11;53.74
35806;BME280;21925;44.608;11.580;2023-05-18T13:07:28;101783.28;;;30.52;52.82